N22T UNNT-UNEE
Flight info
| Callsign | N22T |
|---|---|
| Flight time | 0h 43m |
| Altitude | 25000 |
| Route | OGATI1K OGATI OGATI4G |
| Aircraft | SF50/L-BDGRSWY/LB2U2 |
Departure
| Time | 2026-04-12 10:20 |
|---|---|
| Airport | Novosibirsk Tolmachevo Airport (UNNT) |
Arrival
| Time | 2026-04-12 11:04 |
|---|---|
| Airport | Alexei Leonov Kemerovo International Airport (UNEE) |
| Time | Latitude | Longitude | Altitude | Speed | Heading |
|---|---|---|---|---|---|
| 2026-04-12 09:58 | 55.01157 | 82.66832 | 367 ft | 0 kts | 351° |
| 2026-04-12 10:17 | 55.01164 | 82.66825 | 367 ft | 3 kts | 307° |
| 2026-04-12 10:17 | 55.01162 | 82.66779 | 367 ft | 6 kts | 259° |
| 2026-04-12 10:18 | 55.01158 | 82.66710 | 367 ft | 5 kts | 265° |
| 2026-04-12 10:18 | 55.01178 | 82.66659 | 367 ft | 7 kts | 330° |
| 2026-04-12 10:18 | 55.01229 | 82.66630 | 367 ft | 9 kts | 351° |
| 2026-04-12 10:18 | 55.01269 | 82.66620 | 367 ft | 3 kts | 356° |
| 2026-04-12 10:19 | 55.01272 | 82.66620 | 367 ft | 0 kts | 351° |
| 2026-04-12 10:19 | 55.01303 | 82.66611 | 367 ft | 12 kts | 351° |
| 2026-04-12 10:19 | 55.01375 | 82.66499 | 368 ft | 7 kts | 262° |
| 2026-04-12 10:19 | 55.01351 | 82.66230 | 366 ft | 54 kts | 261° |
| 2026-04-12 10:20 | 55.01265 | 82.65268 | 511 ft | 94 kts | 261° |
| 2026-04-12 10:20 | 55.01085 | 82.64105 | 893 ft | 101 kts | 254° |
| 2026-04-12 10:20 | 55.00935 | 82.62962 | 1372 ft | 93 kts | 259° |
| 2026-04-12 10:20 | 55.00845 | 82.61732 | 1494 ft | 115 kts | 266° |
| 2026-04-12 10:21 | 55.00788 | 82.60185 | 1622 ft | 140 kts | 267° |
| 2026-04-12 10:21 | 55.00722 | 82.58464 | 2255 ft | 143 kts | 266° |
| 2026-04-12 10:21 | 55.00674 | 82.56730 | 2907 ft | 143 kts | 267° |
| 2026-04-12 10:21 | 55.00511 | 82.55021 | 3563 ft | 143 kts | 270° |
| 2026-04-12 10:22 | 55.01091 | 82.53665 | 4257 ft | 160 kts | 332° |
| 2026-04-12 10:22 | 55.02240 | 82.53522 | 4914 ft | 170 kts | 352° |
| 2026-04-12 10:22 | 55.03345 | 82.54420 | 5548 ft | 193 kts | 44° |
| 2026-04-12 10:22 | 55.03689 | 82.56686 | 6202 ft | 201 kts | 99° |
| 2026-04-12 10:23 | 55.03075 | 82.58822 | 6766 ft | 198 kts | 128° |
| 2026-04-12 10:23 | 55.02258 | 82.60792 | 7276 ft | 202 kts | 129° |
| 2026-04-12 10:23 | 55.01597 | 82.62984 | 7774 ft | 207 kts | 113° |
| 2026-04-12 10:23 | 55.01150 | 82.65382 | 8313 ft | 210 kts | 105° |
| 2026-04-12 10:24 | 55.00806 | 82.67844 | 8840 ft | 213 kts | 98° |
| 2026-04-12 10:24 | 55.00635 | 82.70415 | 9372 ft | 215 kts | 92° |
| 2026-04-12 10:24 | 55.00516 | 82.73027 | 9887 ft | 218 kts | 92° |
| 2026-04-12 10:24 | 55.00349 | 82.75656 | 10344 ft | 220 kts | 95° |
| 2026-04-12 10:25 | 55.00139 | 82.78319 | 10801 ft | 222 kts | 95° |
| 2026-04-12 10:25 | 54.99956 | 82.80999 | 11239 ft | 222 kts | 94° |
| 2026-04-12 10:25 | 54.99780 | 82.83712 | 11389 ft | 227 kts | 94° |
| 2026-04-12 10:25 | 54.99591 | 82.86447 | 11590 ft | 228 kts | 94° |
| 2026-04-12 10:26 | 54.99398 | 82.89190 | 11786 ft | 229 kts | 94° |
| 2026-04-12 10:26 | 54.99210 | 82.91947 | 12006 ft | 230 kts | 94° |
| 2026-04-12 10:26 | 54.99018 | 82.94721 | 12205 ft | 231 kts | 94° |
| 2026-04-12 10:26 | 54.98824 | 82.97507 | 12415 ft | 232 kts | 94° |
| 2026-04-12 10:27 | 54.98629 | 83.00290 | 12666 ft | 233 kts | 94° |
| 2026-04-12 10:27 | 54.98431 | 83.03111 | 13106 ft | 234 kts | 94° |
| 2026-04-12 10:27 | 54.98233 | 83.05937 | 13543 ft | 236 kts | 94° |
| 2026-04-12 10:27 | 54.98031 | 83.08789 | 13987 ft | 238 kts | 94° |
| 2026-04-12 10:28 | 54.97828 | 83.11671 | 14401 ft | 240 kts | 94° |
| 2026-04-12 10:28 | 54.97620 | 83.14575 | 14838 ft | 243 kts | 94° |
| 2026-04-12 10:28 | 54.97412 | 83.17461 | 15253 ft | 245 kts | 94° |
| 2026-04-12 10:28 | 54.97197 | 83.20454 | 15695 ft | 246 kts | 94° |
| 2026-04-12 10:29 | 54.96985 | 83.23419 | 16134 ft | 248 kts | 94° |
| 2026-04-12 10:29 | 54.96770 | 83.26384 | 16566 ft | 251 kts | 95° |
| 2026-04-12 10:29 | 54.96551 | 83.29411 | 17008 ft | 253 kts | 95° |
| 2026-04-12 10:29 | 54.96328 | 83.32462 | 17464 ft | 255 kts | 95° |
| 2026-04-12 10:30 | 54.96103 | 83.35538 | 17909 ft | 257 kts | 95° |
| 2026-04-12 10:30 | 54.95875 | 83.38644 | 18361 ft | 260 kts | 95° |
| 2026-04-12 10:30 | 54.95645 | 83.41774 | 18757 ft | 261 kts | 95° |
| 2026-04-12 10:30 | 54.95409 | 83.44918 | 19163 ft | 263 kts | 95° |
| 2026-04-12 10:31 | 54.95167 | 83.48084 | 19562 ft | 264 kts | 95° |
| 2026-04-12 10:31 | 54.94921 | 83.51267 | 19951 ft | 266 kts | 95° |
| 2026-04-12 10:31 | 54.94671 | 83.54463 | 20351 ft | 268 kts | 95° |
| 2026-04-12 10:31 | 54.94420 | 83.57686 | 20754 ft | 269 kts | 95° |
| 2026-04-12 10:32 | 54.94169 | 83.60925 | 21168 ft | 270 kts | 95° |
| 2026-04-12 10:32 | 54.93921 | 83.64110 | 21613 ft | 269 kts | 95° |
| 2026-04-12 10:32 | 54.93674 | 83.67341 | 22013 ft | 271 kts | 95° |
| 2026-04-12 10:32 | 54.93424 | 83.70654 | 22210 ft | 281 kts | 95° |
| 2026-04-12 10:33 | 54.93170 | 83.74090 | 22291 ft | 293 kts | 95° |
| 2026-04-12 10:33 | 54.92911 | 83.77690 | 22326 ft | 305 kts | 95° |
| 2026-04-12 10:33 | 54.92649 | 83.81421 | 22340 ft | 315 kts | 95° |
| 2026-04-12 10:33 | 54.92383 | 83.85250 | 22349 ft | 323 kts | 95° |
| 2026-04-12 10:34 | 54.92112 | 83.89188 | 22201 ft | 333 kts | 95° |
| 2026-04-12 10:34 | 54.91836 | 83.93180 | 22122 ft | 339 kts | 95° |
| 2026-04-12 10:34 | 54.91553 | 83.97281 | 22084 ft | 344 kts | 95° |
| 2026-04-12 10:34 | 54.91263 | 84.01443 | 22063 ft | 348 kts | 95° |
| 2026-04-12 10:35 | 54.90968 | 84.05634 | 22061 ft | 351 kts | 95° |
| 2026-04-12 10:35 | 54.90666 | 84.09852 | 22059 ft | 352 kts | 95° |
| 2026-04-12 10:35 | 54.90356 | 84.14074 | 22056 ft | 354 kts | 95° |
| 2026-04-12 10:35 | 54.90035 | 84.18326 | 22062 ft | 355 kts | 96° |
| 2026-04-12 10:36 | 54.89706 | 84.22584 | 22059 ft | 356 kts | 96° |
| 2026-04-12 10:36 | 54.89370 | 84.26844 | 22055 ft | 356 kts | 96° |
| 2026-04-12 10:36 | 54.89023 | 84.31111 | 22058 ft | 357 kts | 96° |
| 2026-04-12 10:36 | 54.88665 | 84.35395 | 22060 ft | 358 kts | 97° |
| 2026-04-12 10:37 | 54.88303 | 84.39614 | 22056 ft | 358 kts | 97° |
| 2026-04-12 10:37 | 54.87929 | 84.43886 | 22054 ft | 358 kts | 97° |
| 2026-04-12 10:37 | 54.87547 | 84.48163 | 22057 ft | 359 kts | 97° |
| 2026-04-12 10:37 | 54.87157 | 84.52441 | 22063 ft | 359 kts | 97° |
| 2026-04-12 10:38 | 54.86758 | 84.56728 | 22067 ft | 359 kts | 97° |
| 2026-04-12 10:38 | 54.86353 | 84.61008 | 22066 ft | 360 kts | 98° |
| 2026-04-12 10:38 | 54.85941 | 84.65295 | 22059 ft | 359 kts | 98° |
| 2026-04-12 10:38 | 54.85524 | 84.69565 | 21741 ft | 357 kts | 98° |
| 2026-04-12 10:39 | 54.85102 | 84.73811 | 21062 ft | 356 kts | 98° |
| 2026-04-12 10:39 | 54.84673 | 84.78048 | 19966 ft | 357 kts | 98° |
| 2026-04-12 10:39 | 54.84414 | 84.82269 | 18812 ft | 344 kts | 83° |
| 2026-04-12 10:39 | 54.85059 | 84.86047 | 17594 ft | 314 kts | 54° |
| 2026-04-12 10:40 | 54.86425 | 84.88681 | 16434 ft | 284 kts | 32° |
| 2026-04-12 10:40 | 54.87921 | 84.90758 | 15396 ft | 269 kts | 30° |
| 2026-04-12 10:40 | 54.89383 | 84.92684 | 14430 ft | 259 kts | 29° |
| 2026-04-12 10:40 | 54.90786 | 84.94588 | 13459 ft | 255 kts | 35° |
| 2026-04-12 10:41 | 54.91955 | 84.96913 | 12455 ft | 255 kts | 47° |
| 2026-04-12 10:41 | 54.92927 | 84.99494 | 11511 ft | 253 kts | 54° |
| 2026-04-12 10:41 | 54.93807 | 85.02225 | 10727 ft | 277 kts | 57° |
| 2026-04-12 10:41 | 54.94723 | 85.05362 | 10358 ft | 299 kts | 63° |
| 2026-04-12 10:42 | 54.95431 | 85.08717 | 10201 ft | 299 kts | 68° |
| 2026-04-12 10:42 | 54.96008 | 85.12196 | 10119 ft | 301 kts | 73° |
| 2026-04-12 10:42 | 54.96423 | 85.15780 | 9938 ft | 304 kts | 78° |
| 2026-04-12 10:42 | 54.96684 | 85.19484 | 9316 ft | 310 kts | 83° |
| 2026-04-12 10:43 | 54.96715 | 85.26957 | 7341 ft | 302 kts | 94° |
| 2026-04-12 10:43 | 54.96470 | 85.30473 | 6226 ft | 292 kts | 95° |
| 2026-04-12 10:43 | 54.96145 | 85.33950 | 5556 ft | 280 kts | 105° |
| 2026-04-12 10:44 | 54.96040 | 85.37094 | 5629 ft | 250 kts | 76° |
| 2026-04-12 10:44 | 54.96500 | 85.38847 | 5657 ft | 232 kts | 51° |
| 2026-04-12 10:44 | 54.97486 | 85.40912 | 5687 ft | 215 kts | 44° |
| 2026-04-12 10:44 | 54.98446 | 85.42827 | 5699 ft | 204 kts | 45° |
| 2026-04-12 10:45 | 54.99321 | 85.44705 | 5703 ft | 197 kts | 47° |
| 2026-04-12 10:45 | 55.00111 | 85.46620 | 5700 ft | 192 kts | 51° |
| 2026-04-12 10:45 | 55.00815 | 85.48563 | 5701 ft | 188 kts | 54° |
| 2026-04-12 10:45 | 55.01472 | 85.50519 | 5695 ft | 185 kts | 56° |
| 2026-04-12 10:46 | 55.02098 | 85.52462 | 5703 ft | 183 kts | 57° |
| 2026-04-12 10:46 | 55.02649 | 85.54452 | 5696 ft | 182 kts | 62° |
| 2026-04-12 10:46 | 55.03194 | 85.56589 | 5704 ft | 209 kts | 62° |
| 2026-04-12 10:46 | 55.03862 | 85.59045 | 5702 ft | 239 kts | 61° |
| 2026-04-12 10:47 | 55.04633 | 85.61809 | 5481 ft | 270 kts | 62° |
| 2026-04-12 10:47 | 55.05454 | 85.64870 | 5113 ft | 280 kts | 63° |
| 2026-04-12 10:47 | 55.06257 | 85.67891 | 4771 ft | 275 kts | 63° |
| 2026-04-12 10:47 | 55.07080 | 85.70898 | 4623 ft | 274 kts | 63° |
| 2026-04-12 10:48 | 55.07894 | 85.73901 | 4546 ft | 272 kts | 63° |
| 2026-04-12 10:48 | 55.08694 | 85.76899 | 4520 ft | 273 kts | 63° |
| 2026-04-12 10:48 | 55.09503 | 85.79890 | 4498 ft | 271 kts | 63° |
| 2026-04-12 10:48 | 55.10304 | 85.82849 | 4488 ft | 258 kts | 63° |
| 2026-04-12 10:49 | 55.10990 | 85.85428 | 4484 ft | 222 kts | 63° |
| 2026-04-12 10:49 | 55.11644 | 85.87864 | 4496 ft | 221 kts | 62° |
| 2026-04-12 10:49 | 55.12301 | 85.90299 | 4502 ft | 222 kts | 63° |
| 2026-04-12 10:49 | 55.12951 | 85.92722 | 4495 ft | 221 kts | 63° |
| 2026-04-12 10:50 | 55.13554 | 85.94999 | 4494 ft | 193 kts | 63° |
| 2026-04-12 10:50 | 55.14121 | 85.97124 | 4493 ft | 193 kts | 63° |
| 2026-04-12 10:50 | 55.14696 | 85.99263 | 4496 ft | 195 kts | 62° |
| 2026-04-12 10:50 | 55.15273 | 86.01425 | 4492 ft | 197 kts | 63° |
| 2026-04-12 10:51 | 55.15849 | 86.03593 | 4495 ft | 197 kts | 63° |
| 2026-04-12 10:51 | 55.16428 | 86.05772 | 4498 ft | 197 kts | 63° |
| 2026-04-12 10:51 | 55.17005 | 86.07935 | 4485 ft | 196 kts | 63° |
| 2026-04-12 10:51 | 55.17578 | 86.10092 | 4251 ft | 195 kts | 63° |
| 2026-04-12 10:52 | 55.18146 | 86.12228 | 4114 ft | 193 kts | 64° |
| 2026-04-12 10:52 | 55.18710 | 86.14354 | 4053 ft | 191 kts | 64° |
| 2026-04-12 10:52 | 55.19367 | 86.16355 | 4019 ft | 190 kts | 43° |
| 2026-04-12 10:52 | 55.20477 | 86.17472 | 4025 ft | 183 kts | 32° |
| 2026-04-12 10:53 | 55.21482 | 86.18878 | 3957 ft | 185 kts | 44° |
| 2026-04-12 10:53 | 55.22296 | 86.20620 | 3932 ft | 189 kts | 56° |
| 2026-04-12 10:53 | 55.22697 | 86.22839 | 3667 ft | 198 kts | 78° |
| 2026-04-12 10:53 | 55.22936 | 86.25231 | 3541 ft | 197 kts | 81° |
| 2026-04-12 10:54 | 55.23134 | 86.27601 | 3463 ft | 196 kts | 81° |
| 2026-04-12 10:54 | 55.23367 | 86.29940 | 3418 ft | 195 kts | 80° |
| 2026-04-12 10:54 | 55.23610 | 86.32223 | 3572 ft | 182 kts | 73° |
| 2026-04-12 10:54 | 55.23937 | 86.34306 | 3817 ft | 176 kts | 73° |
| 2026-04-12 10:55 | 55.24289 | 86.36353 | 3873 ft | 181 kts | 71° |
| 2026-04-12 10:55 | 55.24694 | 86.38508 | 3775 ft | 189 kts | 70° |
| 2026-04-12 10:55 | 55.25119 | 86.40695 | 3729 ft | 190 kts | 70° |
| 2026-04-12 10:55 | 55.25564 | 86.42870 | 3707 ft | 188 kts | 65° |
| 2026-04-12 10:56 | 55.26142 | 86.44912 | 3700 ft | 187 kts | 62° |
| 2026-04-12 10:56 | 55.26877 | 86.46737 | 3689 ft | 183 kts | 32° |
| 2026-04-12 10:56 | 55.28071 | 86.46997 | 3690 ft | 174 kts | 340° |
| 2026-04-12 10:56 | 55.29219 | 86.46344 | 3694 ft | 174 kts | 342° |
| 2026-04-12 10:57 | 55.30401 | 86.45848 | 3693 ft | 175 kts | 343° |
| 2026-04-12 10:57 | 55.31570 | 86.45277 | 3686 ft | 174 kts | 340° |
| 2026-04-12 10:57 | 55.32730 | 86.44650 | 3692 ft | 174 kts | 340° |
| 2026-04-12 10:57 | 55.33882 | 86.43998 | 3687 ft | 174 kts | 339° |
| 2026-04-12 10:58 | 55.34932 | 86.43096 | 3688 ft | 170 kts | 312° |
| 2026-04-12 10:58 | 55.35189 | 86.41193 | 3685 ft | 167 kts | 255° |
| 2026-04-12 10:58 | 55.34622 | 86.39419 | 3695 ft | 167 kts | 239° |
| 2026-04-12 10:58 | 55.34285 | 86.37523 | 3687 ft | 165 kts | 271° |
| 2026-04-12 10:59 | 55.34337 | 86.35506 | 3696 ft | 166 kts | 271° |
| 2026-04-12 10:59 | 55.34219 | 86.33549 | 3702 ft | 145 kts | 260° |
| 2026-04-12 10:59 | 55.34091 | 86.31945 | 3700 ft | 125 kts | 265° |
| 2026-04-12 10:59 | 55.34008 | 86.30470 | 3696 ft | 119 kts | 260° |
| 2026-04-12 11:00 | 55.33879 | 86.29041 | 3693 ft | 119 kts | 262° |
| 2026-04-12 11:00 | 55.33758 | 86.27590 | 3643 ft | 120 kts | 262° |
| 2026-04-12 11:00 | 55.33461 | 86.26229 | 3587 ft | 121 kts | 243° |
| 2026-04-12 11:00 | 55.33000 | 86.24978 | 3467 ft | 125 kts | 237° |
| 2026-04-12 11:01 | 55.32465 | 86.23706 | 2976 ft | 134 kts | 235° |
| 2026-04-12 11:01 | 55.31894 | 86.22397 | 2696 ft | 133 kts | 234° |
| 2026-04-12 11:01 | 55.31347 | 86.21137 | 2586 ft | 126 kts | 236° |
| 2026-04-12 11:01 | 55.30834 | 86.19916 | 2446 ft | 126 kts | 236° |
| 2026-04-12 11:02 | 55.30317 | 86.18646 | 1957 ft | 130 kts | 236° |
| 2026-04-12 11:02 | 55.29796 | 86.17387 | 1511 ft | 125 kts | 235° |
| 2026-04-12 11:02 | 55.29313 | 86.16232 | 1347 ft | 110 kts | 233° |
| 2026-04-12 11:02 | 55.28903 | 86.15191 | 1257 ft | 95 kts | 233° |
| 2026-04-12 11:03 | 55.28554 | 86.14223 | 1160 ft | 93 kts | 237° |
| 2026-04-12 11:03 | 55.28195 | 86.13258 | 1016 ft | 96 kts | 231° |
| 2026-04-12 11:03 | 55.27746 | 86.12432 | 896 ft | 92 kts | 219° |
| 2026-04-12 11:03 | 55.27355 | 86.11566 | 839 ft | 91 kts | 232° |
| 2026-04-12 11:04 | 55.26999 | 86.10752 | 840 ft | 71 kts | 231° |
| 2026-04-12 11:04 | 55.26764 | 86.10203 | 838 ft | 42 kts | 233° |
| 2026-04-12 11:04 | 55.26657 | 86.09931 | 839 ft | 13 kts | 259° |
| 2026-04-12 11:04 | 55.26681 | 86.09858 | 840 ft | 0 kts | 332° |
| 2026-04-12 11:05 | 55.26692 | 86.09850 | 837 ft | 7 kts | 354° |
| 2026-04-12 11:05 | 55.26793 | 86.09908 | 841 ft | 23 kts | 16° |
| 2026-04-12 11:05 | 55.26987 | 86.10026 | 841 ft | 36 kts | 13° |
| 2026-04-12 11:06 | 55.27182 | 86.10132 | 841 ft | 21 kts | 20° |
| 2026-04-12 11:06 | 55.27284 | 86.10245 | 839 ft | 15 kts | 49° |
| 2026-04-12 11:06 | 55.27365 | 86.10442 | 838 ft | 25 kts | 56° |
| 2026-04-12 11:06 | 55.27488 | 86.10746 | 841 ft | 36 kts | 57° |
| 2026-04-12 11:07 | 55.27614 | 86.11064 | 842 ft | 24 kts | 55° |
| 2026-04-12 11:07 | 55.27698 | 86.11274 | 842 ft | 18 kts | 53° |
| 2026-04-12 11:07 | 55.27753 | 86.11345 | 837 ft | 1 kts | 326° |
| 2026-04-12 11:07 | 55.27755 | 86.11342 | 839 ft | 1 kts | 325° |
| 2026-04-12 11:08 | 55.27758 | 86.11338 | 840 ft | 0 kts | 325° |